createdAt,value
2019-02-17T00:16:01.314Z,27.01
2019-02-17T00:21:09.665Z,25.72
2019-02-17T00:26:18.145Z,27.40
2019-02-17T01:07:25.072Z,27.13
2019-02-17T01:43:23.282Z,26.62
2019-02-17T01:53:40.395Z,30.84
2019-02-17T02:03:56.844Z,29.47
2019-02-17T02:09:04.944Z,28.45
2019-02-17T02:19:21.532Z,29.72
2019-02-17T02:24:29.865Z,30.89
2019-02-17T02:29:40.978Z,30.04
2019-02-17T02:39:53.899Z,30.73
2019-02-17T02:45:02.413Z,30.97
2019-02-17T02:55:19.001Z,31.28
2019-02-17T03:05:36.165Z,32.36
2019-02-17T03:21:01.141Z,32.74
2019-02-17T03:31:18.247Z,29.82
2019-02-17T03:36:26.666Z,31.00
2019-02-17T03:51:47.348Z,34.48
2019-02-17T03:56:45.671Z,34.44
2019-02-17T04:12:04.404Z,35.46
2019-02-17T04:17:12.607Z,35.59
2019-02-17T04:37:40.590Z,35.13
2019-02-17T04:42:48.815Z,37.09
2019-02-17T04:53:06.809Z,37.34
2019-02-17T04:58:15.161Z,36.41
2019-02-17T05:08:32.917Z,36.84
2019-02-17T05:18:49.665Z,37.95
2019-02-17T06:05:04.449Z,36.11
2019-02-17T06:15:21.147Z,35.37
2019-02-17T06:20:29.643Z,35.43
2019-02-17T06:25:38.260Z,34.69
2019-02-17T06:30:46.479Z,36.49
2019-02-17T06:35:54.585Z,34.31
2019-02-17T06:41:02.945Z,35.87
2019-02-17T06:46:11.210Z,36.13
2019-02-17T06:51:19.747Z,35.90
2019-02-17T06:56:28.337Z,35.67
2019-02-17T07:01:37.614Z,35.99
2019-02-17T07:06:45.730Z,36.55
2019-02-17T07:11:53.987Z,37.24
2019-02-17T07:17:02.771Z,37.04
2019-02-17T07:22:11.190Z,37.36
2019-02-17T07:27:19.416Z,37.16
2019-02-17T07:32:27.658Z,37.32
2019-02-17T07:37:36.134Z,38.13
2019-02-17T07:42:44.487Z,38.19
2019-02-17T07:47:52.647Z,37.42
2019-02-17T07:53:00.803Z,37.78
2019-02-17T07:58:08.938Z,38.00
2019-02-17T08:03:17.073Z,39.12
2019-02-17T08:08:25.367Z,38.36
2019-02-17T08:13:33.787Z,39.63
2019-02-17T08:18:41.871Z,38.70
2019-02-17T08:23:50.221Z,38.72
2019-02-17T08:28:58.400Z,38.99
2019-02-17T08:34:06.816Z,38.72
2019-02-17T08:39:14.955Z,37.67
2019-02-17T08:44:23.623Z,38.52
2019-02-17T08:49:31.694Z,39.14
2019-02-17T08:54:40.374Z,38.74
2019-02-17T08:59:48.933Z,38.45
2019-02-17T09:04:57.187Z,40.17
2019-02-17T09:20:16.263Z,36.27
2019-02-17T09:25:24.656Z,35.98
2019-02-17T09:35:41.562Z,34.85
2019-02-17T09:45:58.195Z,32.66
2019-02-17T09:56:14.769Z,31.56
2019-02-17T10:27:01.694Z,31.09
2019-02-17T10:37:18.842Z,31.40
2019-02-17T10:47:35.618Z,31.05
2019-02-17T10:52:43.673Z,30.55
2019-02-17T10:57:52.269Z,30.44
2019-02-17T11:03:00.453Z,29.86
2019-02-17T11:08:08.698Z,30.46
2019-02-17T11:13:16.782Z,30.14
2019-02-17T11:18:24.922Z,30.63
2019-02-17T11:23:32.958Z,30.70
2019-02-17T11:28:41.049Z,30.46
2019-02-17T11:33:49.149Z,29.78
2019-02-17T11:38:57.210Z,30.10
2019-02-17T11:44:05.214Z,29.91
2019-02-17T11:49:13.529Z,29.64
2019-02-17T11:54:21.787Z,29.59
2019-02-17T11:59:30.040Z,29.27
2019-02-17T12:04:38.180Z,27.41
2019-02-17T12:09:46.453Z,29.78
2019-02-17T12:14:54.621Z,28.37
2019-02-17T12:20:06.161Z,28.53
2019-02-17T12:25:07.377Z,28.75
2019-02-17T12:30:15.657Z,27.92
2019-02-17T12:35:25.454Z,27.78
2019-02-17T12:40:38.915Z,28.24
2019-02-17T12:45:38.557Z,27.33
2019-02-17T12:51:02.206Z,27.48
2019-02-17T12:55:50.961Z,26.83
2019-02-17T13:00:59.476Z,27.49
2019-02-17T13:06:07.617Z,27.94
2019-02-17T13:11:16.012Z,27.91
2019-02-17T13:16:24.178Z,28.57
2019-02-17T13:21:32.367Z,28.46
2019-02-17T13:26:40.837Z,28.01
2019-02-17T13:31:49.013Z,29.05
2019-02-17T13:36:57.288Z,27.70
2019-02-17T13:42:06.680Z,27.45
2019-02-17T13:47:18.338Z,26.46
2019-02-17T13:52:17.022Z,25.60
2019-02-17T13:57:25.497Z,24.86
2019-02-17T14:02:34.237Z,25.23
2019-02-17T14:07:42.715Z,25.36
2019-02-17T14:12:51.364Z,25.46
2019-02-17T14:18:00.164Z,25.56
2019-02-17T14:23:08.841Z,26.49
2019-02-17T14:28:17.626Z,25.14
2019-02-17T14:33:26.457Z,25.02
2019-02-17T14:38:34.871Z,25.93
2019-02-17T14:43:43.461Z,25.75
2019-02-17T14:48:51.948Z,25.78
2019-02-17T14:54:00.495Z,25.33
2019-02-17T14:59:09.038Z,24.40
2019-02-17T15:04:17.674Z,25.05
2019-02-17T15:09:26.168Z,24.16
2019-02-17T15:14:34.896Z,21.85
2019-02-17T15:19:43.307Z,22.31
2019-02-17T15:24:51.607Z,21.46
2019-02-17T15:30:00.790Z,21.17
2019-02-17T15:35:10.374Z,20.50
2019-02-17T15:40:19.267Z,20.00
2019-02-17T15:45:28.670Z,20.61
2019-02-17T15:50:38.222Z,20.73
2019-02-17T15:55:38.255Z,21.28
2019-02-17T16:00:46.532Z,21.06
2019-02-17T16:05:55.018Z,20.64
2019-02-17T16:11:03.270Z,20.83
2019-02-17T16:16:11.844Z,21.03
2019-02-17T16:21:20.200Z,20.56
2019-02-17T16:26:28.724Z,20.55
2019-02-17T16:31:37.189Z,20.75
2019-02-17T16:36:46.647Z,20.53
2019-02-17T16:41:55.434Z,20.56
2019-02-17T16:47:03.885Z,20.58
2019-02-17T16:52:12.691Z,21.04
2019-02-17T17:02:24.851Z,22.05
2019-02-17T17:07:33.588Z,22.99
2019-02-17T17:12:41.978Z,23.40
2019-02-17T17:17:50.745Z,22.96
2019-02-17T17:22:56.740Z,22.76
2019-02-17T17:28:05.351Z,22.82
2019-02-17T17:33:13.505Z,23.48
2019-02-17T17:38:22.424Z,23.71
2019-02-17T17:43:30.676Z,23.38
2019-02-17T17:48:38.984Z,24.10
2019-02-17T17:53:47.166Z,24.36
2019-02-17T17:58:55.286Z,24.99
2019-02-17T18:04:03.597Z,24.78
2019-02-17T18:09:11.759Z,25.00
2019-02-17T18:14:19.961Z,25.57
2019-02-17T18:19:28.250Z,26.50
2019-02-17T18:24:36.426Z,26.67
2019-02-17T18:29:44.677Z,26.83
2019-02-17T18:35:07.189Z,26.96
2019-02-17T18:39:55.619Z,26.69
2019-02-17T18:45:04.033Z,27.87
2019-02-17T18:50:13.053Z,26.96
2019-02-17T19:10:49.146Z,26.96
2019-02-17T23:01:35.003Z,28.24
2019-02-17T23:06:53.437Z,26.96
2019-02-17T23:11:51.178Z,27.19
2019-02-17T23:16:59.245Z,27.20
2019-02-17T23:22:07.326Z,31.28
2019-02-17T23:27:15.554Z,28.27
2019-02-17T23:32:23.769Z,28.87
2019-02-17T23:37:31.982Z,29.08
2019-02-17T23:42:40.075Z,29.38
2019-02-17T23:47:48.176Z,29.70
2019-02-17T23:52:56.286Z,29.64
2019-02-17T23:58:04.505Z,29.97
